createdAt,value
2022-11-13T00:01:26.041Z,6.70
2022-11-13T00:03:53.409Z,6.60
2022-11-13T00:06:20.205Z,5.33
2022-11-13T00:08:48.230Z,7.57
2022-11-13T00:11:19.737Z,8.87
2022-11-13T00:13:48.044Z,9.43
2022-11-13T00:16:21.105Z,7.07
2022-11-13T00:18:48.488Z,7.60
2022-11-13T00:21:24.280Z,6.87
2022-11-13T00:23:52.202Z,5.83
2022-11-13T00:26:22.772Z,5.47
2022-11-13T00:28:57.981Z,6.27
2022-11-13T00:31:26.708Z,6.77
2022-11-13T00:36:40.517Z,5.53
2022-11-13T00:39:07.606Z,5.73
2022-11-13T00:41:34.767Z,4.13
2022-11-13T00:44:01.482Z,5.27
2022-11-13T00:46:29.753Z,5.10
2022-11-13T00:48:57.777Z,4.67
2022-11-13T00:51:25.021Z,5.67
2022-11-13T00:53:52.593Z,4.57
2022-11-13T00:56:19.720Z,4.97
2022-11-13T00:58:46.416Z,4.50
2022-11-13T01:01:15.906Z,4.30
2022-11-13T01:03:43.394Z,4.20
2022-11-13T01:06:29.886Z,4.13
2022-11-13T01:09:02.371Z,4.00
2022-11-13T01:11:31.080Z,3.90
2022-11-13T01:13:58.188Z,4.37
2022-11-13T01:16:26.814Z,3.70
2022-11-13T01:18:57.362Z,3.90
2022-11-13T01:21:26.603Z,3.33
2022-11-13T01:23:54.573Z,3.37
2022-11-13T01:26:24.419Z,3.60
2022-11-13T01:28:51.581Z,3.43
2022-11-13T01:31:21.288Z,3.60
2022-11-13T01:33:50.886Z,3.50
2022-11-13T01:36:20.390Z,3.33
2022-11-13T01:38:47.711Z,3.30
2022-11-13T01:41:38.571Z,3.20
2022-11-13T01:44:12.055Z,3.10
2022-11-13T01:46:59.250Z,3.20
2022-11-13T01:49:37.142Z,3.43
2022-11-13T01:52:10.005Z,3.70
2022-11-13T01:54:51.329Z,3.00
2022-11-13T01:57:19.895Z,3.03
2022-11-13T01:59:53.397Z,2.90
2022-11-13T02:02:20.090Z,3.17
2022-11-13T02:04:47.423Z,2.80
2022-11-13T02:07:16.731Z,2.90
2022-11-13T02:09:46.553Z,2.77
2022-11-13T02:12:19.029Z,2.93
2022-11-13T02:14:53.733Z,2.70
2022-11-13T02:17:30.790Z,3.23
2022-11-13T02:20:02.493Z,3.17
2022-11-13T02:22:49.010Z,4.77
2022-11-13T02:25:18.461Z,3.60
2022-11-13T02:27:47.887Z,3.50
2022-11-13T02:30:28.261Z,2.80
2022-11-13T02:32:57.418Z,3.30
2022-11-13T02:35:37.843Z,3.70
2022-11-13T02:38:05.903Z,3.70
2022-11-13T02:40:33.848Z,3.03
2022-11-13T02:43:00.700Z,3.00
2022-11-13T02:45:27.769Z,3.10
2022-11-13T02:47:54.405Z,3.60
2022-11-13T02:50:23.154Z,3.30
2022-11-13T02:52:49.808Z,3.00
2022-11-13T02:55:16.553Z,3.07
2022-11-13T02:57:43.645Z,3.00
2022-11-13T03:00:14.107Z,2.97
2022-11-13T03:02:43.207Z,2.80
2022-11-13T03:05:12.966Z,2.93
2022-11-13T03:07:41.102Z,3.07
2022-11-13T03:10:09.515Z,3.03
2022-11-13T03:12:36.604Z,2.90
2022-11-13T03:15:04.783Z,2.83
2022-11-13T03:17:32.920Z,3.00
2022-11-13T03:20:00.035Z,3.17
2022-11-13T03:22:27.696Z,3.23
2022-11-13T03:24:55.256Z,2.80
2022-11-13T03:27:21.898Z,2.93
2022-11-13T03:29:49.089Z,2.73
2022-11-13T03:32:15.800Z,3.17
2022-11-13T03:34:42.969Z,2.70
2022-11-13T03:37:09.619Z,2.80
2022-11-13T03:39:37.292Z,2.63
2022-11-13T03:42:04.064Z,2.13
2022-11-13T03:44:31.110Z,2.43
2022-11-13T03:46:57.718Z,2.63
2022-11-13T03:49:24.349Z,2.10
2022-11-13T03:51:51.062Z,2.57
2022-11-13T03:54:17.788Z,1.93
2022-11-13T03:56:44.460Z,2.07
2022-11-13T03:59:11.524Z,2.30
2022-11-13T04:01:38.179Z,2.40
2022-11-13T04:04:06.378Z,2.47
2022-11-13T04:06:33.532Z,2.00
2022-11-13T04:09:00.621Z,1.93
2022-11-13T04:11:27.323Z,2.07
2022-11-13T04:13:54.417Z,2.40
2022-11-13T04:16:22.532Z,2.50
2022-11-13T04:18:52.547Z,2.37
2022-11-13T04:21:19.213Z,2.20
2022-11-13T04:23:45.890Z,2.30
2022-11-13T04:26:12.514Z,2.10
2022-11-13T04:28:39.277Z,2.20
2022-11-13T04:31:05.945Z,2.10
2022-11-13T04:33:33.450Z,2.40
2022-11-13T04:36:00.126Z,2.27
2022-11-13T04:38:27.633Z,2.93
2022-11-13T04:41:16.555Z,2.47
2022-11-13T04:43:43.171Z,2.30
2022-11-13T04:46:11.488Z,2.30
2022-11-13T04:48:41.522Z,2.90
2022-11-13T04:51:08.180Z,3.30
2022-11-13T04:53:38.053Z,3.43
2022-11-13T04:56:04.876Z,3.00
2022-11-13T04:58:32.023Z,2.80
2022-11-13T05:00:58.671Z,2.90
2022-11-13T05:03:26.564Z,3.27
2022-11-13T05:05:55.322Z,3.43
2022-11-13T05:08:21.984Z,2.70
2022-11-13T05:10:49.033Z,3.20
2022-11-13T05:13:16.199Z,2.53
2022-11-13T05:15:44.513Z,2.70
2022-11-13T05:18:11.118Z,2.50
2022-11-13T05:20:37.791Z,2.83
2022-11-13T05:23:05.119Z,2.60
2022-11-13T05:25:33.631Z,2.80
2022-11-13T05:28:00.723Z,2.43
2022-11-13T05:30:27.396Z,2.50
2022-11-13T05:32:54.100Z,2.60
2022-11-13T05:35:20.759Z,2.23
2022-11-13T05:37:48.685Z,2.77
2022-11-13T05:40:15.632Z,2.80
2022-11-13T05:42:42.288Z,2.57
2022-11-13T05:45:09.458Z,3.10
2022-11-13T05:47:36.080Z,2.73
2022-11-13T05:50:03.151Z,3.00
2022-11-13T05:52:29.758Z,2.70
2022-11-13T05:54:56.395Z,3.20
2022-11-13T05:57:24.406Z,2.20
2022-11-13T05:59:51.030Z,2.60
2022-11-13T06:02:17.675Z,2.80
2022-11-13T06:04:44.336Z,2.70
2022-11-13T06:07:10.963Z,2.83
2022-11-13T06:09:39.047Z,3.07
2022-11-13T06:12:05.889Z,2.90
2022-11-13T06:14:34.269Z,2.70
2022-11-13T06:17:00.896Z,2.83
2022-11-13T06:19:27.650Z,2.60
2022-11-13T06:21:54.559Z,2.50
2022-11-13T06:24:21.539Z,2.73
2022-11-13T06:26:48.483Z,2.40
2022-11-13T06:29:15.189Z,2.33
2022-11-13T06:31:42.090Z,2.77
2022-11-13T06:34:08.865Z,2.70
2022-11-13T06:36:37.424Z,2.60
2022-11-13T06:39:12.027Z,2.33
2022-11-13T06:41:39.672Z,2.70
2022-11-13T06:44:06.422Z,2.73
2022-11-13T06:46:33.200Z,2.53
2022-11-13T06:48:59.837Z,3.23
2022-11-13T06:51:31.348Z,5.93
2022-11-13T06:54:00.465Z,6.57
2022-11-13T06:56:27.204Z,8.83
2022-11-13T06:58:55.408Z,6.93
2022-11-13T07:01:25.072Z,6.73
2022-11-13T07:03:51.952Z,6.57
2022-11-13T07:06:21.861Z,6.20
2022-11-13T07:08:50.167Z,4.87
2022-11-13T07:11:22.070Z,4.53
2022-11-13T07:13:49.717Z,4.30
2022-11-13T07:16:18.469Z,5.10
2022-11-13T07:18:51.395Z,23.57
2022-11-13T07:21:18.428Z,13.37
2022-11-13T07:23:49.103Z,12.60
2022-11-13T07:26:16.011Z,14.13
2022-11-13T07:28:42.748Z,11.57
2022-11-13T07:31:12.328Z,10.27
2022-11-13T07:33:39.288Z,6.87
2022-11-13T07:36:06.536Z,9.03
2022-11-13T07:38:33.603Z,10.40
2022-11-13T07:41:01.076Z,6.97
2022-11-13T07:43:27.903Z,5.90
2022-11-13T07:45:58.243Z,4.70
2022-11-13T07:48:25.566Z,5.67
2022-11-13T07:50:52.242Z,5.43
2022-11-13T07:53:20.915Z,6.00
2022-11-13T07:55:47.908Z,6.27
2022-11-13T07:58:14.794Z,6.43
2022-11-13T08:00:41.526Z,8.37
2022-11-13T08:03:11.474Z,6.07
2022-11-13T08:05:39.934Z,9.80
2022-11-13T08:08:07.680Z,6.87
2022-11-13T08:10:35.793Z,5.30
2022-11-13T08:13:04.554Z,5.10
2022-11-13T08:15:32.368Z,5.60
2022-11-13T08:18:02.223Z,5.60
2022-11-13T08:20:30.078Z,4.00
2022-11-13T08:23:01.828Z,3.60
2022-11-13T08:25:32.491Z,4.67
2022-11-13T08:28:00.363Z,4.20
2022-11-13T08:30:28.623Z,3.20
2022-11-13T08:32:55.340Z,3.20
2022-11-13T08:35:28.970Z,2.90
2022-11-13T08:38:02.230Z,3.97
2022-11-13T08:40:29.013Z,3.13
2022-11-13T08:43:00.295Z,2.93
2022-11-13T08:45:28.135Z,2.77
2022-11-13T08:48:05.746Z,3.00
2022-11-13T08:50:35.699Z,3.77
2022-11-13T08:53:02.351Z,2.60
2022-11-13T08:55:29.037Z,2.60
2022-11-13T08:58:02.290Z,2.63
2022-11-13T09:00:30.031Z,2.27
2022-11-13T09:02:58.942Z,2.87
2022-11-13T09:05:26.574Z,2.50
2022-11-13T09:08:01.331Z,2.50
2022-11-13T09:10:30.416Z,2.80
2022-11-13T09:13:03.353Z,2.93
2022-11-13T09:15:31.832Z,2.83
2022-11-13T09:18:03.226Z,2.50
2022-11-13T09:20:32.587Z,2.50
2022-11-13T09:23:03.587Z,2.40
2022-11-13T09:25:37.076Z,2.60
2022-11-13T09:28:05.286Z,2.80
2022-11-13T09:30:32.577Z,2.63
2022-11-13T09:33:01.674Z,2.93
2022-11-13T09:35:35.917Z,3.20
2022-11-13T09:38:11.084Z,2.53
2022-11-13T09:40:44.212Z,2.87
2022-11-13T09:43:24.729Z,3.33
2022-11-13T09:46:04.610Z,3.27
2022-11-13T09:48:42.268Z,2.83
2022-11-13T09:51:30.831Z,3.30
2022-11-13T09:54:02.571Z,3.13
2022-11-13T09:56:42.447Z,3.53
2022-11-13T09:59:32.369Z,2.97
2022-11-13T10:02:08.284Z,3.13
2022-11-13T10:04:47.268Z,3.73
2022-11-13T10:07:25.105Z,3.70
2022-11-13T10:10:04.992Z,3.70
2022-11-13T10:12:32.919Z,3.20
2022-11-13T10:15:05.660Z,3.80
2022-11-13T10:17:42.563Z,3.20
2022-11-13T10:20:32.420Z,3.30
2022-11-13T10:23:15.251Z,3.03
2022-11-13T10:25:43.561Z,3.70
2022-11-13T10:28:54.195Z,3.33
2022-11-13T10:31:12.398Z,3.30
2022-11-13T10:33:39.432Z,3.50
2022-11-13T10:36:44.295Z,3.27
2022-11-13T10:39:11.385Z,3.20
2022-11-13T10:41:53.546Z,3.20
2022-11-13T10:44:26.978Z,3.07
2022-11-13T10:47:36.088Z,3.70
2022-11-13T10:50:27.677Z,3.40
2022-11-13T10:52:56.332Z,3.17
2022-11-13T10:55:38.827Z,3.37
2022-11-13T10:58:17.158Z,3.70
2022-11-13T11:00:49.152Z,3.23
2022-11-13T11:03:22.389Z,3.10
2022-11-13T11:05:58.437Z,3.70
2022-11-13T11:08:35.933Z,3.77
2022-11-13T11:11:27.279Z,3.33
2022-11-13T11:14:16.676Z,3.60
2022-11-13T11:16:46.350Z,3.00
2022-11-13T11:19:15.604Z,3.47
2022-11-13T11:21:43.962Z,3.60
2022-11-13T11:24:20.421Z,3.50
2022-11-13T11:26:56.444Z,3.37
2022-11-13T11:29:54.578Z,2.83
2022-11-13T11:32:31.309Z,3.43
2022-11-13T11:35:21.095Z,3.30
2022-11-13T11:37:52.009Z,3.03
2022-11-13T11:40:31.075Z,2.70
2022-11-13T11:43:29.152Z,3.07
2022-11-13T11:45:56.078Z,2.73
2022-11-13T11:48:34.377Z,3.00
2022-11-13T11:51:26.794Z,2.93
2022-11-13T11:54:11.623Z,2.83
2022-11-13T11:56:54.378Z,3.00
2022-11-13T11:59:39.576Z,2.60
2022-11-13T12:02:06.459Z,3.23
2022-11-13T12:04:55.355Z,3.07
2022-11-13T12:07:42.467Z,3.17
2022-11-13T12:10:33.773Z,3.33
2022-11-13T12:13:17.991Z,3.40
2022-11-13T12:15:51.833Z,3.47
2022-11-13T12:18:37.372Z,3.07
2022-11-13T12:21:22.384Z,2.80
2022-11-13T12:24:09.443Z,4.17
2022-11-13T12:26:57.790Z,3.50
2022-11-13T12:33:24.721Z,4.23
2022-11-13T12:35:54.103Z,4.50
2022-11-13T12:38:57.009Z,4.80
2022-11-13T12:41:38.986Z,4.50
2022-11-13T12:44:08.399Z,4.90
2022-11-13T12:46:38.970Z,4.80
2022-11-13T12:49:23.896Z,4.77
2022-11-13T12:51:59.607Z,4.50
2022-11-13T12:54:37.638Z,4.90
2022-11-13T12:57:13.272Z,4.50
2022-11-13T12:59:44.130Z,4.93
2022-11-13T13:02:13.890Z,4.93
2022-11-13T13:04:40.497Z,4.57
2022-11-13T13:07:23.197Z,4.80
2022-11-13T13:10:08.221Z,4.53
2022-11-13T13:12:42.830Z,5.10
2022-11-13T13:15:43.438Z,4.67
2022-11-13T13:18:19.404Z,5.00
2022-11-13T13:21:06.265Z,4.90
2022-11-13T13:23:42.445Z,4.80
2022-11-13T13:26:25.975Z,4.90
2022-11-13T13:29:16.673Z,4.97
2022-11-13T13:31:49.820Z,4.40
2022-11-13T13:34:40.074Z,4.77
2022-11-13T13:37:32.026Z,6.23
2022-11-13T13:40:24.808Z,4.60
2022-11-13T13:43:19.576Z,4.47
2022-11-13T13:46:25.105Z,4.10
2022-11-13T13:48:57.288Z,4.20
2022-11-13T13:51:46.729Z,3.60
2022-11-13T13:54:18.761Z,3.93
2022-11-13T13:57:05.644Z,4.23
2022-11-13T13:59:37.444Z,5.23
2022-11-13T14:02:24.467Z,4.60
2022-11-13T14:04:54.542Z,4.93
2022-11-13T14:07:29.840Z,4.20
2022-11-13T14:10:29.838Z,4.40
2022-11-13T14:12:56.767Z,4.67
2022-11-13T14:15:32.802Z,4.37
2022-11-13T14:18:15.475Z,4.53
2022-11-13T14:20:52.053Z,4.47
2022-11-13T14:23:29.401Z,3.87
2022-11-13T14:25:59.565Z,3.97
2022-11-13T14:28:29.817Z,4.27
2022-11-13T14:31:01.889Z,4.00
2022-11-13T14:33:35.800Z,4.20
2022-11-13T14:36:04.106Z,4.13
2022-11-13T14:38:35.811Z,4.10
2022-11-13T14:41:03.929Z,4.30
2022-11-13T14:43:33.104Z,3.90
2022-11-13T14:46:04.888Z,4.43
2022-11-13T14:48:34.365Z,4.60
2022-11-13T14:51:06.385Z,4.30
2022-11-13T14:53:36.538Z,4.23
2022-11-13T14:56:09.202Z,3.97
2022-11-13T14:58:39.262Z,4.73
2022-11-13T15:01:25.204Z,5.50
2022-11-13T15:03:54.114Z,4.70
2022-11-13T15:06:26.291Z,4.73
2022-11-13T15:08:58.201Z,5.30
2022-11-13T15:11:27.505Z,5.43
2022-11-13T15:13:54.227Z,5.87
2022-11-13T15:16:28.747Z,5.53
2022-11-13T15:19:13.631Z,6.30
2022-11-13T15:21:44.916Z,5.37
2022-11-13T15:24:14.515Z,5.37
2022-11-13T15:26:42.618Z,5.60
2022-11-13T15:29:09.276Z,5.93
2022-11-13T15:31:43.122Z,5.27
2022-11-13T15:34:14.576Z,5.97
2022-11-13T15:36:42.017Z,7.07
2022-11-13T15:39:12.691Z,5.17
2022-11-13T15:41:46.101Z,5.93
2022-11-13T15:44:16.063Z,7.60
2022-11-13T15:46:42.969Z,9.90
2022-11-13T15:49:09.869Z,7.97
2022-11-13T15:51:42.247Z,7.17
2022-11-13T15:54:48.232Z,8.00
2022-11-13T15:57:35.119Z,6.20
2022-11-13T16:00:02.034Z,10.20
2022-11-13T16:02:32.007Z,11.50
2022-11-13T16:04:58.640Z,8.93
2022-11-13T16:07:48.567Z,9.90
2022-11-13T16:10:16.356Z,7.37
2022-11-13T16:12:43.217Z,7.60
2022-11-13T16:15:35.800Z,7.47
2022-11-13T16:18:02.616Z,7.83
2022-11-13T16:20:29.442Z,7.13
2022-11-13T16:22:56.517Z,9.07
2022-11-13T16:25:23.295Z,7.90
2022-11-13T16:27:51.441Z,11.03
2022-11-13T16:30:21.640Z,9.00
2022-11-13T16:32:49.592Z,12.80
2022-11-13T16:35:37.900Z,13.07
2022-11-13T16:38:29.994Z,11.37
2022-11-13T16:40:56.971Z,9.20
2022-11-13T16:43:23.587Z,9.67
2022-11-13T16:45:55.589Z,8.80
2022-11-13T16:48:22.461Z,8.40
2022-11-13T16:50:51.267Z,8.67
2022-11-13T16:53:17.984Z,9.70
2022-11-13T16:55:44.912Z,9.13
2022-11-13T16:58:31.779Z,10.23
2022-11-13T17:01:01.557Z,11.63
2022-11-13T17:03:28.540Z,11.27
2022-11-13T17:05:55.378Z,11.47
2022-11-13T17:08:23.305Z,12.63
2022-11-13T17:10:57.910Z,11.87
2022-11-13T17:13:26.799Z,12.27
2022-11-13T17:15:54.444Z,12.27
2022-11-13T17:18:21.221Z,10.73
2022-11-13T17:20:51.195Z,13.13
2022-11-13T17:23:17.857Z,11.63
2022-11-13T17:25:44.475Z,9.33
2022-11-13T17:28:11.135Z,10.00
2022-11-13T17:30:38.261Z,9.63
2022-11-13T17:33:04.963Z,10.60
2022-11-13T17:35:33.386Z,9.87
2022-11-13T17:38:00.057Z,10.00
2022-11-13T17:40:26.735Z,10.33
2022-11-13T17:42:54.911Z,9.97
2022-11-13T17:45:21.736Z,14.10
2022-11-13T17:47:51.435Z,12.23
2022-11-13T17:50:19.486Z,10.40
2022-11-13T17:52:46.211Z,11.80
2022-11-13T17:55:14.081Z,10.27
2022-11-13T17:57:40.981Z,10.80
2022-11-13T18:00:08.477Z,12.50
2022-11-13T18:02:35.257Z,12.27
2022-11-13T18:05:04.879Z,15.83
2022-11-13T18:07:32.384Z,14.67
2022-11-13T18:09:59.371Z,15.07
2022-11-13T18:12:30.702Z,15.47
2022-11-13T18:14:57.418Z,15.63
2022-11-13T18:17:24.600Z,17.07
2022-11-13T18:19:56.018Z,15.83
2022-11-13T18:22:27.628Z,39.70
2022-11-13T18:24:54.795Z,20.50
2022-11-13T18:27:24.774Z,15.17
2022-11-13T18:29:52.047Z,16.00
2022-11-13T18:32:18.819Z,15.37
2022-11-13T18:34:45.559Z,16.53
2022-11-13T18:37:12.344Z,16.83
2022-11-13T18:39:39.208Z,16.63
2022-11-13T18:42:08.664Z,17.10
2022-11-13T18:44:39.246Z,16.93
2022-11-13T18:47:07.468Z,16.80
2022-11-13T18:49:34.315Z,16.87
2022-11-13T18:52:01.307Z,18.40
2022-11-13T18:54:30.717Z,17.47
2022-11-13T18:56:57.534Z,17.33
2022-11-13T18:59:24.363Z,17.07
2022-11-13T19:01:53.214Z,16.40
2022-11-13T19:04:24.146Z,20.07
2022-11-13T19:06:52.454Z,17.00
2022-11-13T19:09:19.877Z,15.10
2022-11-13T19:11:46.823Z,16.37
2022-11-13T19:14:15.774Z,15.10
2022-11-13T19:16:42.608Z,15.50
2022-11-13T19:19:21.647Z,17.03
2022-11-13T19:21:51.127Z,18.17
2022-11-13T19:24:18.203Z,19.43
2022-11-13T19:26:47.467Z,17.40
2022-11-13T19:29:14.683Z,18.20
2022-11-13T19:31:41.473Z,18.77
2022-11-13T19:34:08.536Z,17.33
2022-11-13T19:36:36.495Z,18.10
2022-11-13T19:39:04.072Z,18.17
2022-11-13T19:41:30.945Z,18.97
2022-11-13T19:44:01.963Z,19.23
2022-11-13T19:46:29.634Z,20.30
2022-11-13T19:48:56.375Z,19.90
2022-11-13T19:51:26.257Z,19.40
2022-11-13T19:53:58.694Z,17.80
2022-11-13T19:56:31.971Z,19.20
2022-11-13T19:58:59.051Z,18.77
2022-11-13T20:01:27.849Z,19.87
2022-11-13T20:04:16.397Z,20.20
2022-11-13T20:06:44.469Z,18.60
2022-11-13T20:09:11.208Z,20.00
2022-11-13T20:11:38.484Z,19.07
2022-11-13T20:14:05.188Z,18.93
2022-11-13T20:16:31.947Z,19.10
2022-11-13T20:18:59.567Z,17.87
2022-11-13T20:21:27.535Z,19.70
2022-11-13T20:23:57.169Z,19.57
2022-11-13T20:26:24.581Z,20.13
2022-11-13T20:28:51.559Z,19.03
2022-11-13T20:31:24.116Z,20.47
2022-11-13T20:33:55.271Z,19.13
2022-11-13T20:36:25.239Z,19.60
2022-11-13T20:38:56.940Z,20.47
2022-11-13T20:41:25.395Z,20.23
2022-11-13T20:43:53.046Z,19.07
2022-11-13T20:46:21.197Z,19.57
2022-11-13T20:48:48.259Z,18.63
2022-11-13T20:51:27.021Z,19.17
2022-11-13T20:53:54.426Z,22.33
2022-11-13T20:56:22.868Z,20.87
2022-11-13T20:58:50.338Z,21.20
2022-11-13T21:01:23.002Z,22.87
2022-11-13T21:03:50.086Z,22.17
2022-11-13T21:06:20.165Z,22.93
2022-11-13T21:08:47.579Z,22.60
2022-11-13T21:11:19.306Z,21.60
2022-11-13T21:13:47.500Z,22.73
2022-11-13T21:16:14.279Z,24.23
2022-11-13T21:18:41.175Z,22.30
2022-11-13T21:21:16.328Z,23.87
2022-11-13T21:23:43.118Z,21.47
2022-11-13T21:26:10.100Z,21.50
2022-11-13T21:28:37.603Z,23.03
2022-11-13T21:31:19.442Z,22.23
2022-11-13T21:33:47.666Z,21.50
2022-11-13T21:36:14.375Z,22.37
2022-11-13T21:38:42.811Z,23.47
2022-11-13T21:41:29.562Z,23.03
2022-11-13T21:44:00.852Z,23.10
2022-11-13T21:46:31.241Z,23.07
2022-11-13T21:49:10.058Z,22.80
2022-11-13T21:51:38.436Z,23.17
2022-11-13T21:54:05.848Z,23.50
2022-11-13T21:56:35.841Z,24.37
2022-11-13T21:59:03.894Z,23.50
2022-11-13T22:01:37.549Z,25.50
2022-11-13T22:04:05.909Z,25.03
2022-11-13T22:06:36.392Z,26.40
2022-11-13T22:09:14.168Z,24.20
2022-11-13T22:11:41.133Z,25.33
2022-11-13T22:14:08.719Z,25.27
2022-11-13T22:16:37.974Z,24.13
2022-11-13T22:19:09.942Z,24.40
2022-11-13T22:21:36.910Z,25.20
2022-11-13T22:24:04.742Z,25.03
2022-11-13T22:26:31.802Z,24.00
2022-11-13T22:29:00.275Z,25.97
2022-11-13T22:31:29.432Z,24.37
2022-11-13T22:33:56.988Z,23.30
2022-11-13T22:36:33.860Z,23.60
2022-11-13T22:39:00.955Z,23.37
2022-11-13T22:41:32.665Z,23.57
2022-11-13T22:44:02.144Z,22.20
2022-11-13T22:46:30.992Z,23.97
2022-11-13T22:49:01.610Z,22.43
2022-11-13T22:51:33.190Z,23.23
2022-11-13T22:54:02.521Z,23.30
2022-11-13T22:56:32.378Z,23.50
2022-11-13T22:59:01.134Z,22.80
2022-11-13T23:01:30.551Z,24.03
2022-11-13T23:03:59.618Z,22.90
2022-11-13T23:06:32.679Z,23.10
2022-11-13T23:09:01.151Z,22.30
2022-11-13T23:11:35.095Z,20.90
2022-11-13T23:14:03.646Z,21.90
2022-11-13T23:16:32.044Z,22.50
2022-11-13T23:19:01.009Z,22.90
2022-11-13T23:21:29.440Z,21.93
2022-11-13T23:23:57.683Z,22.33
2022-11-13T23:26:26.146Z,21.47
2022-11-13T23:28:53.214Z,23.07
2022-11-13T23:31:20.671Z,23.53
2022-11-13T23:33:47.455Z,24.30
2022-11-13T23:36:16.116Z,23.20
2022-11-13T23:38:42.812Z,21.97
2022-11-13T23:44:13.327Z,22.73
2022-11-13T23:46:40.175Z,22.97
2022-11-13T23:49:06.914Z,23.97
2022-11-13T23:51:34.105Z,22.67
2022-11-13T23:54:00.894Z,21.60
2022-11-13T23:56:27.707Z,22.07
2022-11-13T23:58:54.931Z,21.73
